レシフェ の空港の天気 - METARとTAF

レシフェ・グアララペス国際空港 ( SBRF / REC ) - ブラジル ペルナンブーコ州レシフェ
飛行場実況気象(Metar)
観測時間06/14 19:00 BRT (06/14 22:00 UTC)
風向・風速南東 4m/s
視程10km以上
天気現象
全天の4割程度の雲 雲底高度 400m
全天の8割程度の雲 雲底高度 610m
気温22℃
湿度88%
気圧1015hPa
METARSBRF 142200Z 13008KT 9999 SCT013 BKN020 22/20 Q1015
過去の天気等 Google飛行場航空写真 Wunderground天気予報

過去48時間のMETAR

飛行場予報(TAF)
発表時間: 6/14 12:00 BRT (6/14 15:00 UTC)
予報対象時間: 14日15時 BRT ~ 15日15時 BRT
風向・風速南 3m/s
視程10km以上
少しの雲 雲底高度 760m
14日21時 BRT ~ 15日3時 BRT に一時的に
風向・風速南西 3m/s
視程3000m
天気現象雨 もや
全天の8割程度の雲 雲底高度 300m
15日4時 BRT ~ 15日6時 BRT に徐々に
風向・風速南南西 3m/s
全天の4割程度の雲 雲底高度 610m
15日9時 BRT ~ 15日11時 BRT に徐々に
風向・風速南南東 8m/s
少しの雲 雲底高度 760m
TAF SBRF 141500Z 1418/1518 18005KT 9999 FEW025 TN22/1509Z TX27/1517Z
TEMPO 1500/1506 23005KT 3000 RA BR BKN010
BECMG 1507/1509 21006KT SCT020
BECMG 1512/1514 15015KT FEW025 RMK PGY